Contact Us:
Email: info@sawbill.com
Phone: (218)663-7150
Fax: (218)663-7980
Mail: 4620 Sawbill Trail
Box 2129
Tofte, MN 55615


Powered by
Movable Type 3.15
 
Sawbill Weather History Archives: April 2008
Current Sawbill Weather History | « March 2008 | May 2008 »


Date

High
Temperature

Low
Temperature

Barometric
Pressure

Relative
Humidity 7AM

9 AM
Temperature

Moisture

Snow

4/30/08 50 32 29.88 37% 44 0
4/29/08 45 25 29.91 67% 36 0
4/28/08 35 24 30.00 69% 29 Trace Trace
4/27/08 32 21 30.03 65% 23 0
4/26/08 35 19 29.94 78% 22 .23" 2.5"
4/25/08 36 32 29.29 98% 33 .9" Trace
4/24/08 52 34 29.71 98% 39 .27"
4/23/08 61 36 30.00 44% 47 0
4/22/08 45 27 30.09 73% 42 Trace
4/21/08 62 38 29.91 97% 39 .79"
4/20/08 52 36 30.06 88% 40 0
4/19/08 48 35 30.07 98% 39 .15"
4/18/08 49 32 29.97 74% 40 0
4/17/08 49 26 30.03 80% 32 0
4/16/08 54 31 30.06 45% 38 0
4/15/08 54 37 29.50 59% 49 0
4/14/08 47 27 29.74 52% 41 0
4/13/08 41 13 30.18 53% 28 0
4/12/08 37 17 30.24 47% 28 0
4/11/08 31 18 29.88 65% 21 .2" 2"
4/10/08 38 24 29.74 95% 26 .7" 7.5"
4/9/08 35 27 30.21 83% 30 0
4/8/08 31 25 30.00 98% 29 0
4/7/08 32 23 30.06 92% 27 Trace Trace
4/6/08 33 26 29.68 98% 28 .62" 3"
4/5/08 44 27 29.88 85% 28 .6" 5.5"
4/4/08 46 30 29.79 58% 32 0
4/3/08 45 20 29.83 77% 27 Trace Trace
4/2/08 39 24 29.91 73% 33 0
4/1/08 37 14 30.15 55% 24 0
 


Home I Trip Planning I Rentals and Outfitting I Reservations I Campgrounds I Sawbill Store I Sawbill News I Contact

© 1997 - 2017, Sawbill Canoe Outfitters, Inc. I Privacy Policy